createdAt,value
2022-11-23T00:01:51.364Z,65.63
2022-11-23T00:04:54.487Z,70.23
2022-11-23T00:07:57.652Z,64.20
2022-11-23T00:11:00.893Z,64.67
2022-11-23T00:14:05.703Z,71.50
2022-11-23T00:17:08.599Z,74.13
2022-11-23T00:20:11.977Z,65.27
2022-11-23T00:23:14.923Z,63.53
2022-11-23T00:26:19.474Z,65.47
2022-11-23T00:29:23.758Z,63.23
2022-11-23T00:32:27.443Z,58.77
2022-11-23T00:35:30.385Z,64.63
2022-11-23T00:38:33.570Z,64.10
2022-11-23T00:41:36.764Z,56.57
2022-11-23T00:44:41.044Z,60.93
2022-11-23T00:47:43.925Z,56.03
2022-11-23T00:50:46.827Z,56.30
2022-11-23T00:53:51.048Z,59.87
2022-11-23T00:56:53.900Z,62.63
2022-11-23T00:59:58.190Z,64.67
2022-11-23T01:03:01.111Z,58.40
2022-11-23T01:06:08.877Z,65.63
2022-11-23T01:09:15.972Z,57.60
2022-11-23T01:12:18.878Z,61.80
2022-11-23T01:15:23.359Z,59.37
2022-11-23T01:18:26.847Z,55.43
2022-11-23T01:21:31.359Z,58.57
2022-11-23T01:24:34.283Z,54.07
2022-11-23T01:27:37.184Z,60.50
2022-11-23T01:30:41.418Z,59.60
2022-11-23T01:33:44.594Z,57.23
2022-11-23T01:36:47.705Z,52.33
2022-11-23T01:39:50.616Z,60.53
2022-11-23T01:42:56.633Z,57.63
2022-11-23T01:46:02.050Z,60.60
2022-11-23T01:49:07.664Z,53.60
2022-11-23T01:52:13.991Z,65.53
2022-11-23T01:55:17.948Z,63.17
2022-11-23T01:58:24.511Z,52.97
2022-11-23T02:01:28.991Z,53.03
2022-11-23T02:04:35.145Z,59.60
2022-11-23T02:07:39.102Z,60.27
2022-11-23T02:10:42.253Z,57.70
2022-11-23T02:13:47.631Z,49.67
2022-11-23T02:16:52.598Z,55.77
2022-11-23T02:20:02.616Z,58.33
2022-11-23T02:23:17.936Z,51.03
2022-11-23T02:26:24.185Z,49.97
2022-11-23T02:29:29.427Z,53.33
2022-11-23T02:32:34.383Z,55.93
2022-11-23T02:35:37.501Z,56.63
2022-11-23T02:38:40.414Z,56.37
2022-11-23T02:41:48.074Z,57.57
2022-11-23T02:45:01.378Z,53.80
2022-11-23T02:48:04.809Z,53.30
2022-11-23T02:51:07.925Z,57.17
2022-11-23T02:54:10.888Z,55.67
2022-11-23T02:57:15.647Z,55.53
2022-11-23T03:00:18.735Z,48.30
2022-11-23T03:03:21.629Z,50.07
2022-11-23T03:06:24.597Z,50.70
2022-11-23T03:09:28.256Z,51.47
2022-11-23T03:12:32.524Z,46.33
2022-11-23T03:15:35.395Z,56.80
2022-11-23T03:18:38.307Z,50.10
2022-11-23T03:21:41.231Z,55.57
2022-11-23T03:24:44.178Z,51.50
2022-11-23T03:27:48.733Z,56.73
2022-11-23T03:30:51.816Z,53.43
2022-11-23T03:33:54.805Z,59.20
2022-11-23T03:36:57.841Z,49.67
2022-11-23T03:40:00.791Z,50.60
2022-11-23T03:43:05.742Z,56.73
2022-11-23T03:46:08.595Z,54.53
2022-11-23T03:49:11.897Z,51.03
2022-11-23T03:52:14.770Z,59.77
2022-11-23T03:55:18.034Z,53.97
2022-11-23T03:58:22.364Z,56.77
2022-11-23T04:01:25.941Z,54.30
2022-11-23T04:04:28.912Z,57.40
2022-11-23T04:07:31.876Z,54.13
2022-11-23T04:10:35.192Z,56.47
2022-11-23T04:13:39.810Z,47.47
2022-11-23T04:16:42.718Z,54.07
2022-11-23T04:19:45.780Z,52.17
2022-11-23T04:22:48.671Z,52.03
2022-11-23T04:25:51.713Z,45.70
2022-11-23T04:28:56.102Z,54.60
2022-11-23T04:31:59.058Z,54.17
2022-11-23T04:35:01.946Z,54.13
2022-11-23T04:38:05.143Z,59.27
2022-11-23T04:41:08.047Z,50.00
2022-11-23T04:44:12.349Z,56.23
2022-11-23T04:47:15.315Z,50.20
2022-11-23T04:50:18.352Z,54.53
2022-11-23T04:53:21.314Z,52.27
2022-11-23T04:56:24.189Z,51.87
2022-11-23T04:59:28.691Z,51.10
2022-11-23T05:02:31.712Z,49.30
2022-11-23T05:05:34.675Z,56.83
2022-11-23T05:08:38.526Z,51.80
2022-11-23T05:11:41.780Z,49.07
2022-11-23T05:14:46.062Z,49.77
2022-11-23T05:17:48.955Z,51.13
2022-11-23T05:20:51.853Z,46.40
2022-11-23T05:23:54.894Z,52.83
2022-11-23T05:26:57.901Z,46.03
2022-11-23T05:30:02.479Z,46.60
2022-11-23T05:33:05.519Z,50.37
2022-11-23T05:36:09.223Z,51.53
2022-11-23T05:39:12.377Z,44.20
2022-11-23T05:42:15.372Z,51.13
2022-11-23T05:45:19.688Z,47.73
2022-11-23T05:48:22.574Z,48.63
2022-11-23T05:51:25.500Z,50.13
2022-11-23T05:54:28.427Z,45.00
2022-11-23T05:57:31.338Z,48.17
2022-11-23T06:00:35.642Z,48.43
2022-11-23T06:03:38.624Z,42.43
2022-11-23T06:06:41.759Z,50.40
2022-11-23T06:09:44.691Z,44.73
2022-11-23T06:12:47.664Z,44.97
2022-11-23T06:15:51.978Z,48.30
2022-11-23T06:18:54.895Z,49.53
2022-11-23T06:21:58.236Z,43.00
2022-11-23T06:25:01.374Z,46.47
2022-11-23T06:28:05.390Z,48.37
2022-11-23T06:31:11.483Z,46.70
2022-11-23T06:34:14.504Z,41.93
2022-11-23T06:37:17.413Z,48.80
2022-11-23T06:40:20.381Z,44.67
2022-11-23T06:43:23.329Z,42.37
2022-11-23T06:46:27.792Z,44.67
2022-11-23T06:49:31.053Z,40.30
2022-11-23T06:52:34.174Z,40.40
2022-11-23T06:55:37.122Z,41.33
2022-11-23T06:58:40.045Z,42.60
2022-11-23T07:01:44.411Z,43.00
2022-11-23T07:04:47.322Z,41.47
2022-11-23T07:07:50.531Z,44.57
2022-11-23T07:10:53.480Z,39.50
2022-11-23T07:13:56.594Z,45.93
2022-11-23T07:17:00.866Z,43.23
2022-11-23T07:20:03.833Z,45.73
2022-11-23T07:23:08.352Z,46.67
2022-11-23T07:26:11.227Z,46.20
2022-11-23T07:29:14.313Z,44.63
2022-11-23T07:32:18.559Z,46.87
2022-11-23T07:35:21.971Z,47.50
2022-11-23T07:38:24.908Z,47.80
2022-11-23T07:41:28.347Z,48.67
2022-11-23T07:44:31.286Z,43.37
2022-11-23T07:47:35.730Z,47.53
2022-11-23T07:50:40.041Z,46.17
2022-11-23T07:53:43.116Z,47.17
2022-11-23T07:56:46.071Z,50.13
2022-11-23T07:59:49.126Z,45.30
2022-11-23T08:03:25.576Z,42.40
2022-11-23T08:06:17.256Z,43.57
2022-11-23T08:09:20.302Z,44.50
2022-11-23T08:12:23.243Z,42.53
2022-11-23T08:15:28.095Z,42.77
2022-11-23T08:18:32.367Z,46.07
2022-11-23T08:21:35.255Z,36.73
2022-11-23T08:24:38.110Z,44.30
2022-11-23T08:27:41.174Z,41.07
2022-11-23T08:30:44.253Z,42.00
2022-11-23T08:33:48.572Z,45.13
2022-11-23T08:36:51.443Z,38.30
2022-11-23T08:39:54.360Z,44.87
2022-11-23T08:42:57.339Z,38.80
2022-11-23T08:46:05.642Z,36.57
2022-11-23T08:49:12.323Z,37.40
2022-11-23T08:52:15.943Z,36.70
2022-11-23T08:55:18.956Z,38.10
2022-11-23T08:58:21.882Z,41.53
2022-11-23T09:01:24.842Z,38.27
2022-11-23T09:04:30.879Z,36.43
2022-11-23T09:07:34.037Z,43.80
2022-11-23T09:10:37.769Z,35.87
2022-11-23T09:13:41.053Z,39.53
2022-11-23T09:16:43.990Z,36.17
2022-11-23T09:19:50.196Z,38.27
2022-11-23T09:22:53.865Z,42.23
2022-11-23T09:25:59.430Z,34.10
2022-11-23T09:29:02.319Z,36.60
2022-11-23T09:32:05.512Z,37.20
2022-11-23T09:35:10.775Z,39.53
2022-11-23T09:38:13.752Z,31.77
2022-11-23T09:41:32.150Z,34.07
2022-11-23T09:44:52.220Z,36.17
2022-11-23T09:48:11.780Z,36.23
2022-11-23T09:51:18.738Z,31.33
2022-11-23T09:54:29.225Z,28.90
2022-11-23T09:57:35.552Z,35.83
2022-11-23T10:00:42.277Z,32.43
2022-11-23T10:03:49.098Z,29.17
2022-11-23T10:06:57.539Z,28.57
2022-11-23T10:10:10.083Z,31.23
2022-11-23T10:13:28.045Z,38.23
2022-11-23T10:16:41.470Z,34.17
2022-11-23T10:20:02.799Z,26.07
2022-11-23T10:23:18.150Z,31.67
2022-11-23T10:26:22.707Z,29.47
2022-11-23T10:29:29.587Z,27.27
2022-11-23T10:32:37.887Z,30.67
2022-11-23T10:35:40.814Z,27.53
2022-11-23T10:38:45.566Z,26.90
2022-11-23T10:41:48.929Z,25.13
2022-11-23T10:44:54.111Z,25.60
2022-11-23T10:47:59.563Z,24.47
2022-11-23T10:51:17.854Z,32.97
2022-11-23T10:54:25.777Z,34.00
2022-11-23T10:57:33.533Z,25.63
2022-11-23T11:00:36.571Z,28.80
2022-11-23T11:03:39.482Z,29.13
2022-11-23T11:06:42.387Z,26.83
2022-11-23T11:09:50.695Z,31.57
2022-11-23T11:12:53.607Z,28.30
2022-11-23T11:15:58.927Z,24.80
2022-11-23T11:19:21.445Z,27.00
2022-11-23T11:22:33.459Z,25.17
2022-11-23T11:25:39.878Z,26.67
2022-11-23T11:28:44.772Z,20.87
2022-11-23T11:31:55.764Z,24.17
2022-11-23T11:35:04.890Z,28.10
2022-11-23T11:38:15.877Z,25.47
2022-11-23T11:41:25.351Z,25.73
2022-11-23T11:44:28.897Z,23.07
2022-11-23T11:47:37.688Z,23.00
2022-11-23T11:50:49.162Z,22.97
2022-11-23T11:53:57.648Z,27.03
2022-11-23T11:57:07.002Z,25.80
2022-11-23T12:00:14.879Z,24.43
2022-11-23T12:03:26.684Z,25.43
2022-11-23T12:06:35.785Z,28.60
2022-11-23T12:09:44.744Z,21.73
2022-11-23T12:12:49.287Z,20.63
2022-11-23T12:16:01.323Z,25.13
2022-11-23T12:19:15.082Z,26.93
2022-11-23T12:22:36.241Z,23.97
2022-11-23T12:25:41.896Z,23.23
2022-11-23T12:29:06.238Z,25.97
2022-11-23T12:32:20.358Z,23.73
2022-11-23T12:35:42.905Z,23.70
2022-11-23T12:38:55.616Z,25.50
2022-11-23T12:42:05.168Z,21.37
2022-11-23T12:45:25.090Z,19.53
2022-11-23T12:48:51.343Z,22.47
2022-11-23T12:52:01.593Z,25.40
2022-11-23T12:55:20.066Z,23.97
2022-11-23T12:58:28.776Z,22.10
2022-11-23T13:01:37.928Z,25.20
2022-11-23T13:05:00.744Z,22.87
2022-11-23T13:08:21.780Z,18.77
2022-11-23T13:11:38.305Z,22.60
2022-11-23T13:14:49.704Z,22.97
2022-11-23T13:18:02.159Z,23.60
2022-11-23T13:21:18.660Z,22.70
2022-11-23T13:24:30.744Z,22.80
2022-11-23T13:27:46.884Z,25.70
2022-11-23T13:31:20.420Z,24.03
2022-11-23T13:34:45.896Z,18.67
2022-11-23T13:38:24.674Z,19.70
2022-11-23T13:42:00.469Z,19.53
2022-11-23T13:45:28.599Z,18.07
2022-11-23T13:48:55.395Z,15.60
2022-11-23T13:52:26.111Z,20.67
2022-11-23T13:55:35.352Z,23.30
2022-11-23T13:58:40.742Z,18.70
2022-11-23T14:02:00.487Z,18.83
2022-11-23T14:05:51.983Z,17.27
2022-11-23T14:09:05.661Z,19.33
2022-11-23T14:12:18.165Z,18.83
2022-11-23T14:15:23.078Z,18.33
2022-11-23T14:18:52.632Z,18.87
2022-11-23T14:22:04.094Z,18.50
2022-11-23T14:25:38.031Z,18.37
2022-11-23T14:28:49.202Z,17.13
2022-11-23T14:32:08.928Z,17.93
2022-11-23T14:35:25.084Z,19.23
2022-11-23T14:38:57.694Z,17.80
2022-11-23T14:42:06.291Z,21.40
2022-11-23T14:45:15.208Z,20.50
2022-11-23T14:48:22.019Z,20.07
2022-11-23T14:51:27.130Z,18.47
2022-11-23T14:54:31.293Z,21.93
2022-11-23T14:57:41.786Z,19.70
2022-11-23T15:00:45.758Z,22.90
2022-11-23T15:03:57.877Z,21.20
2022-11-23T15:07:04.063Z,21.67
2022-11-23T15:10:19.118Z,20.23
2022-11-23T15:13:26.824Z,22.90
2022-11-23T15:16:30.497Z,24.73
2022-11-23T15:19:33.744Z,24.00
2022-11-23T15:22:37.902Z,21.83
2022-11-23T15:25:52.093Z,23.50
2022-11-23T15:28:56.512Z,22.90
2022-11-23T15:32:28.413Z,25.67
2022-11-23T15:35:24.174Z,18.67
2022-11-23T15:38:27.641Z,20.67
2022-11-23T15:41:31.792Z,18.07
2022-11-23T15:44:39.820Z,22.93
2022-11-23T15:47:43.193Z,22.50
2022-11-23T15:50:50.544Z,23.53
2022-11-23T15:53:55.060Z,22.10
2022-11-23T15:56:59.031Z,23.23
2022-11-23T16:00:06.541Z,27.13
2022-11-23T16:03:34.732Z,22.87
2022-11-23T16:06:40.594Z,24.53
2022-11-23T16:09:54.477Z,21.90
2022-11-23T16:12:59.323Z,22.73
2022-11-23T16:16:06.312Z,23.70
2022-11-23T16:19:26.204Z,18.83
2022-11-23T16:22:32.829Z,22.17
2022-11-23T16:25:37.024Z,22.70
2022-11-23T16:28:41.532Z,23.33
2022-11-23T16:31:56.146Z,26.70
2022-11-23T16:35:07.844Z,24.37
2022-11-23T16:38:12.526Z,25.90
2022-11-23T16:41:15.450Z,23.27
2022-11-23T16:44:18.618Z,26.00
2022-11-23T16:47:25.277Z,23.17
2022-11-23T16:50:29.794Z,26.43
2022-11-23T16:53:53.497Z,26.13
2022-11-23T16:56:56.625Z,29.53
2022-11-23T17:00:12.519Z,30.17
2022-11-23T17:03:17.782Z,27.90
2022-11-23T17:06:23.267Z,28.87
2022-11-23T17:09:26.251Z,32.27
2022-11-23T17:12:29.213Z,30.63
2022-11-23T17:15:32.147Z,32.73
2022-11-23T17:18:36.415Z,30.40
2022-11-23T17:21:39.362Z,29.37
2022-11-23T17:24:42.539Z,33.67
2022-11-23T17:27:47.070Z,36.77
2022-11-23T17:30:50.132Z,33.10
2022-11-23T17:33:54.412Z,35.70
2022-11-23T17:36:57.380Z,33.67
2022-11-23T17:40:00.327Z,31.63
2022-11-23T17:43:03.344Z,41.73
2022-11-23T17:46:06.968Z,35.97
2022-11-23T17:49:14.021Z,38.40
2022-11-23T17:52:17.024Z,34.83
2022-11-23T17:55:20.046Z,35.70
2022-11-23T17:58:22.943Z,43.27
2022-11-23T18:01:26.038Z,41.17
2022-11-23T18:04:30.391Z,40.13
2022-11-23T18:07:33.420Z,39.13
2022-11-23T18:10:36.408Z,37.27
2022-11-23T18:13:39.953Z,36.57
2022-11-23T18:16:42.808Z,35.77
2022-11-23T18:19:47.074Z,43.47
2022-11-23T18:22:50.131Z,39.40
2022-11-23T18:25:59.724Z,41.97
2022-11-23T18:29:02.915Z,38.17
2022-11-23T18:32:06.670Z,38.17
2022-11-23T18:35:11.351Z,41.67
2022-11-23T18:38:15.042Z,44.80
2022-11-23T18:41:18.700Z,43.80
2022-11-23T18:44:21.733Z,45.10
2022-11-23T18:47:24.987Z,42.57
2022-11-23T18:50:29.225Z,44.93
2022-11-23T18:53:33.108Z,48.33
2022-11-23T18:56:36.096Z,41.80
2022-11-23T19:03:03.649Z,44.87
2022-11-23T19:06:08.591Z,47.77
2022-11-23T19:09:14.150Z,48.90
2022-11-23T19:12:17.179Z,45.83
2022-11-23T19:15:20.621Z,44.00
2022-11-23T19:18:23.566Z,39.73
2022-11-23T19:21:30.153Z,42.87
2022-11-23T19:24:33.089Z,44.83
2022-11-23T19:27:37.328Z,43.77
2022-11-23T19:30:40.210Z,45.27
2022-11-23T19:33:43.532Z,51.67
2022-11-23T19:36:48.023Z,49.43
2022-11-23T19:39:50.942Z,45.53
2022-11-23T19:42:53.909Z,49.20
2022-11-23T19:45:57.388Z,51.63
2022-11-23T19:49:00.482Z,45.87
2022-11-23T19:52:05.551Z,45.97
2022-11-23T19:55:09.374Z,46.13
2022-11-23T19:58:12.305Z,50.17
2022-11-23T20:01:16.777Z,51.77
2022-11-23T20:04:20.091Z,51.67
2022-11-23T20:07:24.585Z,50.97
2022-11-23T20:10:27.515Z,48.63
2022-11-23T20:13:30.814Z,46.03
2022-11-23T20:16:34.245Z,54.23
2022-11-23T20:19:37.241Z,45.80
2022-11-23T20:22:42.795Z,45.67
2022-11-23T20:25:45.755Z,46.40
2022-11-23T20:28:52.727Z,53.57
2022-11-23T20:31:55.634Z,55.30
2022-11-23T20:34:58.636Z,49.97
2022-11-23T20:38:03.072Z,54.07
2022-11-23T20:41:14.103Z,53.90
2022-11-23T20:44:17.044Z,48.40
2022-11-23T20:47:20.013Z,51.23
2022-11-23T20:50:25.168Z,53.63
2022-11-23T20:53:29.609Z,50.47
2022-11-23T20:56:33.037Z,49.83
2022-11-23T20:59:35.973Z,51.97
2022-11-23T21:02:38.987Z,56.00
2022-11-23T21:05:41.892Z,49.27
2022-11-23T21:08:47.471Z,52.93
2022-11-23T21:12:08.179Z,54.83
2022-11-23T21:15:11.176Z,54.27
2022-11-23T21:18:14.300Z,63.77
2022-11-23T21:21:17.197Z,63.87
2022-11-23T21:24:21.702Z,61.73
2022-11-23T21:27:28.073Z,69.27
2022-11-23T21:30:31.619Z,57.43
2022-11-23T21:33:34.752Z,61.10
2022-11-23T21:36:39.664Z,68.13
2022-11-23T21:39:49.433Z,68.53
2022-11-23T21:42:55.702Z,62.10
2022-11-23T21:46:02.335Z,59.80
2022-11-23T21:49:06.547Z,65.87
2022-11-23T21:52:09.774Z,69.20
2022-11-23T21:55:14.317Z,68.33
2022-11-23T21:58:17.200Z,66.53
2022-11-23T22:01:22.024Z,67.00
2022-11-23T22:04:25.244Z,65.77
2022-11-23T22:07:28.427Z,68.37
2022-11-23T22:10:32.991Z,67.10
2022-11-23T22:13:37.092Z,69.70
2022-11-23T22:16:41.797Z,74.30
2022-11-23T22:19:44.969Z,68.77
2022-11-23T22:22:48.002Z,70.47
2022-11-23T22:25:52.485Z,66.67
2022-11-23T22:28:56.514Z,74.77
2022-11-23T22:31:59.652Z,73.00
2022-11-23T22:35:02.772Z,88.33
2022-11-23T22:38:05.855Z,67.90
2022-11-23T22:41:12.216Z,69.73
2022-11-23T22:44:15.244Z,72.97
2022-11-23T22:47:18.378Z,70.33
2022-11-23T22:50:21.469Z,82.73
2022-11-23T22:53:25.336Z,87.60
2022-11-23T22:56:31.243Z,74.50
2022-11-23T22:59:34.413Z,98.80
2022-11-23T23:02:37.584Z,117.47
2022-11-23T23:05:40.745Z,81.47
2022-11-23T23:08:44.028Z,75.27
2022-11-23T23:11:48.535Z,75.60
2022-11-23T23:14:51.608Z,76.13
2022-11-23T23:17:54.811Z,187.53
2022-11-23T23:21:05.064Z,90.93
2022-11-23T23:24:08.529Z,81.50
2022-11-23T23:27:13.003Z,79.40
2022-11-23T23:30:17.280Z,80.13
2022-11-23T23:33:20.368Z,102.30
2022-11-23T23:36:24.995Z,109.53
2022-11-23T23:39:28.141Z,85.50
2022-11-23T23:42:32.846Z,85.20
2022-11-23T23:45:35.980Z,84.00
2022-11-23T23:48:40.036Z,87.40
2022-11-23T23:51:45.545Z,124.70
2022-11-23T23:54:52.098Z,113.53
2022-11-23T23:57:56.553Z,80.07
